Time;durP1;ratioP1;P1;durP2;ratioP2;P2;SDS_P1;SDS_P2;PMS_P1;PMS_P2;Temp;Humidity;BMP_temperature;BMP_pressure;BME280_temperature;BME280_humidity;BME280_pressure;Samples;Min_cycle;Max_cycle;Signal;HPM_P1;HPM_P2
2021/11/26 00:01:37;;;;;;;51.45;33.00;;;;;;;3.79;75.32;99687.09;1743588;82;21596;-74
2021/11/26 00:04:08;;;;;;;50.15;32.85;;;;;;;3.88;75.50;99685.20;1760351;81;21074;-74
2021/11/26 00:06:33;;;;;;;47.98;31.95;;;;;;;3.96;75.58;99681.56;1759341;80;21568;-74
2021/11/26 00:09:00;;;;;;;48.60;31.85;;;;;;;3.83;75.54;99641.20;1743600;82;21086;-75
2021/11/26 00:11:27;;;;;;;45.45;31.00;;;;;;;4.08;75.52;99668.55;1760143;80;21748;-74
2021/11/26 00:14:09;;;;;;;47.83;31.05;;;;;;;4.13;75.46;99666.51;1743339;82;21082;-74
2021/11/26 00:16:31;;;;;;;53.00;33.67;;;;;;;4.16;75.43;99663.59;1754135;81;21550;-74
2021/11/26 00:18:57;;;;;;;47.43;31.93;;;;;;;4.19;75.39;99655.02;1758287;81;21060;-74
2021/11/26 00:21:19;;;;;;;48.13;32.15;;;;;;;4.17;75.27;99645.84;1759277;80;21034;-74
2021/11/26 00:23:46;;;;;;;43.48;31.12;;;;;;;4.15;75.28;99649.21;1743602;82;21746;-74
2021/11/26 00:26:15;;;;;;;46.33;31.95;;;;;;;4.12;75.20;99646.53;1759736;81;21049;-73
2021/11/26 00:28:41;;;;;;;46.92;32.03;;;;;;;4.07;75.21;99643.75;1743597;82;21117;-73
2021/11/26 00:31:12;;;;;;;49.03;31.82;;;;;;;4.05;75.26;99645.42;1760074;81;21105;-74
2021/11/26 00:33:37;;;;;;;48.02;31.62;;;;;;;4.01;75.30;99640.53;1759231;80;21041;-73
2021/11/26 00:36:05;;;;;;;45.12;32.63;;;;;;;3.98;75.32;99641.75;1743812;82;21126;-73
2021/11/26 00:38:34;;;;;;;47.03;30.82;;;;;;;3.92;75.33;99645.42;1760249;81;21068;-73
2021/11/26 00:41:00;;;;;;;45.80;30.52;;;;;;;3.88;75.41;99653.55;1743693;82;21070;-73
2021/11/26 00:43:29;;;;;;;44.60;29.65;;;;;;;3.89;75.61;99657.06;1760214;81;21073;-74
2021/11/26 00:45:56;;;;;;;46.48;29.72;;;;;;;3.90;75.68;99653.60;1759014;80;21737;-74
2021/11/26 00:48:25;;;;;;;45.78;30.68;;;;;;;3.92;75.78;99662.34;1735778;82;21841;-74
2021/11/26 00:50:51;;;;;;;46.05;30.00;;;;;;;3.92;75.73;99664.95;1755206;81;21105;-74
2021/11/26 00:53:19;;;;;;;47.67;29.57;;;;;;;3.95;75.83;99672.00;1705597;82;21055;-73
2021/11/26 00:55:49;;;;;;;50.20;31.10;;;;;;;4.00;75.95;99662.21;1755145;80;21038;-74
2021/11/26 00:58:15;;;;;;;48.35;30.80;;;;;;;4.07;75.94;99661.98;1754391;81;21635;-74
2021/11/26 01:00:42;;;;;;;50.65;33.10;;;;;;;4.11;75.93;99657.77;1736058;82;21790;-74
2021/11/26 01:03:10;;;;;;;48.15;31.50;;;;;;;4.14;75.85;99656.15;1754559;81;21733;-74
2021/11/26 01:05:37;;;;;;;48.83;30.15;;;;;;;4.12;75.70;99656.52;1735839;82;21667;-73
2021/11/26 01:08:07;;;;;;;49.48;31.52;;;;;;;4.05;75.61;99653.23;1754896;81;21030;-74
2021/11/26 01:10:33;;;;;;;50.08;32.17;;;;;;;4.00;75.65;99653.09;1754585;81;21564;-74
2021/11/26 01:13:02;;;;;;;42.15;30.80;;;;;;;3.92;75.57;99657.14;1735909;82;22745;-74
2021/11/26 01:15:34;;;;;;;50.55;32.55;;;;;;;3.81;75.56;99652.89;1755127;81;20983;-74
2021/11/26 01:18:03;;;;;;;47.05;32.25;;;;;;;3.69;75.68;99646.83;1736202;82;21141;-74
2021/11/26 01:20:33;;;;;;;48.15;31.80;;;;;;;3.61;75.76;99647.41;1753815;81;21108;-74
2021/11/26 01:23:02;;;;;;;47.75;31.52;;;;;;;3.56;76.00;99642.45;1735715;82;21588;-73
2021/11/26 01:25:29;;;;;;;49.55;31.75;;;;;;;3.57;76.29;99638.61;1755181;81;22543;-73
2021/11/26 01:27:55;;;;;;;43.23;31.37;;;;;;;3.62;76.41;99634.85;1736092;82;20980;-73
2021/11/26 01:30:28;;;;;;;50.05;32.25;;;;;;;3.63;76.42;99637.52;1755275;81;21064;-74
2021/11/26 01:32:55;;;;;;;47.93;32.85;;;;;;;3.61;76.34;99640.48;1735973;82;21361;-74
2021/11/26 01:35:22;;;;;;;52.33;32.95;;;;;;;3.55;76.28;99640.27;1755245;81;21057;-74
2021/11/26 01:37:49;;;;;;;48.05;31.15;;;;;;;3.48;76.31;99629.17;1736171;82;21759;-74
2021/11/26 01:40:17;;;;;;;48.28;31.17;;;;;;;3.45;76.47;99634.27;1755057;81;21282;-74
2021/11/26 01:42:44;;;;;;;47.70;30.97;;;;;;;3.44;76.60;99628.18;1735869;82;21083;-74
2021/11/26 01:45:11;;;;;;;49.60;31.25;;;;;;;3.43;76.58;99634.63;1754756;81;21697;-74
2021/11/26 01:47:38;;;;;;;56.45;34.18;;;;;;;3.39;76.62;99624.52;1738960;82;21541;-74
2021/11/26 01:50:09;;;;;;;45.58;29.98;;;;;;;3.34;76.65;99623.89;1754042;81;22484;-74
2021/11/26 01:52:35;;;;;;;51.80;32.63;;;;;;;3.30;76.70;99616.00;1754015;81;21599;-71
2021/11/26 01:55:05;;;;;;;46.55;30.95;;;;;;;3.24;76.74;99607.08;1749060;81;21045;-72
2021/11/26 01:57:32;;;;;;;49.18;31.02;;;;;;;3.20;76.82;99600.88;1753935;81;21550;-71
2021/11/26 01:59:59;;;;;;;49.35;31.65;;;;;;;3.15;76.92;99601.12;1754080;81;21053;-72
2021/11/26 02:02:27;;;;;;;50.40;31.87;;;;;;;3.10;77.00;99598.37;1748829;81;21046;-71
2021/11/26 02:04:54;;;;;;;45.85;29.75;;;;;;;3.09;77.14;99597.00;1753966;81;21639;-71
2021/11/26 02:07:21;;;;;;;50.70;31.82;;;;;;;3.06;77.22;99599.48;1754102;81;21097;-71
2021/11/26 02:09:50;;;;;;;47.95;29.23;;;;;;;3.04;77.24;99599.84;1754070;81;21042;-71
2021/11/26 02:12:17;;;;;;;46.65;29.35;;;;;;;3.01;77.30;99601.92;1754005;81;21085;-71
2021/11/26 02:14:44;;;;;;;44.08;29.15;;;;;;;3.00;77.41;99589.74;1753919;81;21732;-72
2021/11/26 02:17:13;;;;;;;44.40;27.55;;;;;;;2.98;77.47;99593.12;1753894;81;21041;-71
2021/11/26 02:19:39;;;;;;;41.37;26.17;;;;;;;2.98;77.54;99589.23;1754079;81;21129;-71
2021/11/26 02:22:07;;;;;;;40.33;27.00;;;;;;;2.96;77.57;99589.17;1749084;81;21153;-71
2021/11/26 02:24:34;;;;;;;41.23;27.00;;;;;;;2.97;77.70;99580.98;1754349;80;21033;-72
2021/11/26 02:27:01;;;;;;;39.85;26.07;;;;;;;3.00;77.81;99578.47;1754355;81;21749;-72
2021/11/26 02:29:27;;;;;;;40.45;27.80;;;;;;;3.04;77.80;99580.34;1754185;81;21069;-72
2021/11/26 02:31:57;;;;;;;40.45;26.37;;;;;;;3.07;77.90;99572.24;1753858;81;21042;-72
2021/11/26 02:34:24;;;;;;;36.35;25.52;;;;;;;3.09;77.86;99578.38;1754020;80;21107;-72
2021/11/26 02:36:50;;;;;;;36.95;26.07;;;;;;;3.10;77.94;99581.47;1753919;80;21106;-72
2021/11/26 02:39:17;;;;;;;37.75;26.30;;;;;;;3.17;78.07;99582.55;1754006;81;21770;-72
2021/11/26 02:41:49;;;;;;;41.50;26.93;;;;;;;3.22;78.09;99573.63;1753804;81;21574;-73
2021/11/26 02:44:17;;;;;;;40.73;26.12;;;;;;;3.26;78.06;99572.48;1748934;81;21077;-73
2021/11/26 02:46:47;;;;;;;39.83;26.15;;;;;;;3.28;78.00;99576.05;1753905;80;20994;-73
2021/11/26 02:49:14;;;;;;;41.13;27.95;;;;;;;3.35;78.13;99579.73;1735477;82;21062;-72
2021/11/26 02:51:40;;;;;;;37.83;25.57;;;;;;;3.40;78.08;99578.19;1755010;80;21775;-72
2021/11/26 02:54:07;;;;;;;44.55;26.37;;;;;;;3.41;77.94;99577.76;1735781;82;21623;-72
2021/11/26 02:56:34;;;;;;;40.17;26.12;;;;;;;3.41;78.03;99576.03;1754957;81;21010;-72
2021/11/26 02:59:04;;;;;;;43.00;26.70;;;;;;;3.48;78.09;99578.02;1735708;82;21309;-72
2021/11/26 03:01:31;;;;;;;39.08;26.95;;;;;;;3.53;78.05;99579.50;1755095;81;21006;-72
2021/11/26 03:03:58;;;;;;;43.35;24.98;;;;;;;3.54;77.93;99582.55;1735924;82;21760;-72
2021/11/26 03:06:24;;;;;;;37.33;25.52;;;;;;;3.53;77.87;99581.19;1754824;81;21642;-72
2021/11/26 03:08:51;;;;;;;40.88;26.48;;;;;;;3.48;77.79;99574.55;1712709;82;21071;-72
2021/11/26 03:11:18;;;;;;;39.15;26.48;;;;;;;3.43;77.73;99577.39;1754936;81;21404;-72
2021/11/26 03:13:46;;;;;;;42.65;27.32;;;;;;;3.36;77.74;99568.91;1735841;82;21181;-71
2021/11/26 03:16:16;;;;;;;40.03;26.42;;;;;;;3.29;77.76;99571.72;1753557;81;21068;-72
2021/11/26 03:18:42;;;;;;;39.80;25.90;;;;;;;3.23;77.85;99564.59;1735634;82;21711;-71
2021/11/26 03:21:09;;;;;;;38.45;23.65;;;;;;;3.20;77.91;99567.07;1754725;81;21720;-72
2021/11/26 03:23:36;;;;;;;36.68;24.15;;;;;;;3.18;78.03;99566.13;1735621;82;21061;-72
2021/11/26 03:26:03;;;;;;;40.70;24.77;;;;;;;3.14;78.06;99571.19;1754827;81;21096;-72
2021/11/26 03:28:29;;;;;;;43.50;26.82;;;;;;;3.15;78.14;99576.84;1735704;82;21610;-71
2021/11/26 03:30:56;;;;;;;40.63;25.45;;;;;;;3.13;78.18;99566.37;1754729;81;21163;-71
2021/11/26 03:33:23;;;;;;;38.10;24.87;;;;;;;3.10;78.20;99574.09;1735703;82;21556;-72
2021/11/26 03:35:50;;;;;;;39.67;23.73;;;;;;;3.09;78.31;99573.19;1754900;81;20986;-71
2021/11/26 03:38:16;;;;;;;39.95;25.15;;;;;;;3.11;78.41;99575.84;1735828;82;21710;-71
2021/11/26 03:40:43;;;;;;;37.48;23.85;;;;;;;3.12;78.43;99576.33;1754863;81;21745;-72
2021/11/26 03:43:10;;;;;;;38.35;23.60;;;;;;;3.11;78.42;99581.92;1735570;82;21078;-73
2021/11/26 03:45:37;;;;;;;38.02;23.25;;;;;;;3.14;78.49;99580.29;1754735;81;21045;-72
2021/11/26 03:48:04;;;;;;;41.08;24.40;;;;;;;3.15;78.49;99572.94;1740318;82;21094;-72
2021/11/26 03:50:31;;;;;;;34.50;21.62;;;;;;;3.18;78.61;99573.94;1756646;81;21037;-72
2021/11/26 03:52:58;;;;;;;40.10;23.80;;;;;;;3.22;78.52;99569.31;1743039;82;21768;-72
2021/11/26 03:55:27;;;;;;;41.28;23.38;;;;;;;3.22;78.57;99573.20;1756831;81;21637;-72
2021/11/26 03:57:54;;;;;;;38.73;23.18;;;;;;;3.26;78.62;99567.28;1743014;82;21146;-72
2021/11/26 04:00:21;;;;;;;37.48;24.12;;;;;;;3.26;78.54;99567.28;1757001;81;21586;-72
2021/11/26 04:02:48;;;;;;;41.23;23.20;;;;;;;3.25;78.51;99565.53;1743123;82;21054;-72
2021/11/26 04:05:15;;;;;;;42.62;23.35;;;;;;;3.25;78.52;99568.13;1756953;81;21732;-72
2021/11/26 04:07:43;;;;;;;44.25;25.23;;;;;;;3.24;78.48;99566.34;1743065;82;21070;-72
2021/11/26 04:10:10;;;;;;;37.65;21.95;;;;;;;3.24;78.56;99571.55;1756984;81;21551;-72
2021/11/26 04:12:36;;;;;;;36.48;23.25;;;;;;;3.22;78.54;99564.11;1743268;82;21568;-71
2021/11/26 04:15:06;;;;;;;38.80;23.25;;;;;;;3.20;78.54;99563.17;1757029;81;21013;-72
2021/11/26 04:17:34;;;;;;;35.50;21.33;;;;;;;3.21;78.63;99570.16;1743246;81;21774;-72
2021/11/26 04:20:03;;;;;;;29.23;20.65;;;;;;;3.21;78.54;99566.25;1756976;81;21547;-72
2021/11/26 04:22:30;;;;;;;37.35;21.55;;;;;;;3.19;78.53;99561.81;1743187;82;21126;-72
2021/11/26 04:24:57;;;;;;;33.90;20.40;;;;;;;3.16;78.56;99550.02;1756963;81;21041;-72
2021/11/26 04:27:23;;;;;;;34.67;21.37;;;;;;;3.15;78.61;99548.23;1743160;82;21047;-72
2021/11/26 04:29:50;;;;;;;41.58;21.00;;;;;;;3.19;78.79;99552.32;1756959;81;21693;-72
2021/11/26 04:32:17;;;;;;;32.80;20.68;;;;;;;3.26;78.94;99541.27;1743064;82;21122;-72
2021/11/26 04:34:44;;;;;;;39.95;21.77;;;;;;;3.35;78.97;99539.84;1757175;81;21646;-72
2021/11/26 04:37:10;;;;;;;37.88;23.25;;;;;;;3.36;78.77;99528.20;1743138;82;21132;-72
2021/11/26 04:39:37;;;;;;;30.40;20.02;;;;;;;3.36;78.70;99531.19;1757201;81;21567;-72
2021/11/26 04:42:04;;;;;;;33.67;21.02;;;;;;;3.42;78.87;99532.72;1743010;82;21741;-72
2021/11/26 04:44:31;;;;;;;34.60;20.17;;;;;;;3.52;78.96;99537.81;1754223;81;21182;-72
2021/11/26 04:46:57;;;;;;;34.88;21.80;;;;;;;3.59;78.97;99539.36;1742819;81;21086;-72
2021/11/26 04:49:30;;;;;;;34.03;21.70;;;;;;;3.68;78.89;99544.00;1739672;82;21078;-72
2021/11/26 04:51:55;;;;;;;33.45;20.70;;;;;;;3.75;78.80;99542.47;1758723;80;21035;-72
2021/11/26 04:54:21;;;;;;;32.17;20.45;;;;;;;3.80;78.66;99551.33;1759810;81;22422;-72
2021/11/26 04:56:48;;;;;;;36.25;20.27;;;;;;;3.79;78.38;99549.53;1759677;80;21559;-72
2021/11/26 04:59:18;;;;;;;32.48;20.25;;;;;;;3.72;78.21;99545.87;1759733;80;21064;-72
2021/11/26 05:01:43;;;;;;;31.52;19.10;;;;;;;3.67;78.30;99547.00;1758942;80;21064;-73
2021/11/26 05:04:15;;;;;;;29.92;19.00;;;;;;;3.70;78.44;99541.03;1759438;81;22150;-73
2021/11/26 05:06:47;;;;;;;34.33;20.12;;;;;;;3.69;78.35;99547.94;1740394;82;21978;-72
2021/11/26 05:09:15;;;;;;;34.63;19.87;;;;;;;3.66;78.32;99543.95;1758470;81;21018;-73
2021/11/26 05:11:42;;;;;;;30.77;19.25;;;;;;;3.63;78.22;99554.67;1759954;81;21077;-72
2021/11/26 05:14:09;;;;;;;26.95;18.50;;;;;;;3.58;78.19;99554.92;1759731;81;21591;-72
2021/11/26 05:16:36;;;;;;;34.20;19.70;;;;;;;3.52;78.16;99559.50;1759877;81;21526;-72
2021/11/26 05:19:02;;;;;;;35.20;18.05;;;;;;;3.47;78.22;99568.47;1759900;81;21834;-72
2021/11/26 05:21:29;;;;;;;33.83;19.75;;;;;;;3.43;78.19;99566.98;1759892;80;21049;-72
2021/11/26 05:23:56;;;;;;;30.50;17.62;;;;;;;3.38;78.24;99569.84;1759702;81;21591;-72
2021/11/26 05:26:29;;;;;;;31.17;16.27;;;;;;;3.34;78.24;99571.87;1755087;81;21061;-74
2021/11/26 05:28:56;;;;;;;29.85;17.67;;;;;;;3.31;78.33;99572.23;1724020;81;21552;-72
2021/11/26 05:31:25;;;;;;;25.02;16.12;;;;;;;3.31;78.39;99575.26;1750255;81;22566;-73
2021/11/26 05:33:53;;;;;;;28.75;17.23;;;;;;;3.32;78.54;99571.81;1750139;81;21564;-73
2021/11/26 05:36:20;;;;;;;31.50;17.12;;;;;;;3.40;78.69;99574.70;1772550;80;21080;-73
2021/11/26 05:38:46;;;;;;;33.75;18.07;;;;;;;3.50;78.73;99578.08;1772393;80;21029;-73
2021/11/26 05:41:15;;;;;;;28.80;16.97;;;;;;;3.56;78.68;99578.70;1772117;80;21068;-77
2021/11/26 05:43:42;;;;;;;31.20;18.07;;;;;;;3.62;78.65;99577.21;1772776;80;22513;-86
2021/11/26 05:46:09;;;;;;;32.05;17.37;;;;;;;3.69;78.62;99573.08;1772949;80;21621;-79
2021/11/26 05:48:36;;;;;;;31.73;18.17;;;;;;;3.75;78.49;99575.00;1770174;80;21647;-78
2021/11/26 05:51:03;;;;;;;30.75;18.67;;;;;;;3.75;78.34;99576.30;1769193;80;21076;-72
2021/11/26 05:53:33;;;;;;;30.70;18.20;;;;;;;3.77;78.32;99568.13;1769186;81;21580;-74
2021/11/26 05:56:00;;;;;;;25.72;16.30;;;;;;;3.78;78.30;99571.21;1768934;80;21621;-74
2021/11/26 05:58:27;;;;;;;29.77;18.12;;;;;;;3.80;78.28;99573.02;1769649;80;21080;-75
2021/11/26 06:00:55;;;;;;;28.77;17.60;;;;;;;3.80;78.21;99565.21;1769288;81;21129;-75
2021/11/26 06:03:22;;;;;;;27.37;16.55;;;;;;;3.79;78.14;99571.66;1768627;80;21112;-76
2021/11/26 06:05:50;;;;;;;32.05;18.30;;;;;;;3.74;78.00;99575.86;1738903;80;21076;-76
2021/11/26 06:08:17;;;;;;;31.35;17.35;;;;;;;3.67;78.00;99589.06;1757717;81;21754;-76
2021/11/26 06:10:46;;;;;;;28.50;18.23;;;;;;;3.61;77.96;99589.73;1748512;81;21053;-75
2021/11/26 06:13:12;;;;;;;30.97;18.48;;;;;;;3.56;78.02;99585.21;1753635;81;21065;-76
2021/11/26 06:15:39;;;;;;;29.48;18.02;;;;;;;3.55;78.14;99589.93;1753823;80;21033;-76
2021/11/26 06:18:09;;;;;;;28.90;17.07;;;;;;;3.56;78.18;99596.92;1753701;80;21177;-76
2021/11/26 06:20:38;;;;;;;32.75;16.75;;;;;;;3.55;78.24;99593.44;1752982;81;22450;-75
2021/11/26 06:23:05;;;;;;;36.48;17.02;;;;;;;3.57;78.36;99596.98;1753543;81;21054;-75
2021/11/26 06:25:32;;;;;;;32.35;17.37;;;;;;;3.60;78.35;99595.76;1753661;81;21078;-72
2021/11/26 06:27:58;;;;;;;29.32;15.95;;;;;;;3.63;78.36;99601.08;1752890;81;21903;-72
2021/11/26 06:30:25;;;;;;;28.92;15.90;;;;;;;3.65;78.30;99596.81;1753422;81;21143;-72
2021/11/26 06:32:51;;;;;;;30.02;16.15;;;;;;;3.65;78.25;99604.62;1753839;81;22644;-71
2021/11/26 06:35:20;;;;;;;32.33;16.10;;;;;;;3.66;78.24;99602.50;1753956;81;21049;-72
2021/11/26 06:37:49;;;;;;;32.33;16.37;;;;;;;3.67;78.27;99607.28;1754043;81;21061;-71
2021/11/26 06:40:16;;;;;;;32.35;15.58;;;;;;;3.68;78.21;99606.03;1753941;81;21122;-72
2021/11/26 06:42:42;;;;;;;31.62;15.13;;;;;;;3.67;78.12;99610.76;1753933;81;21065;-72
2021/11/26 06:45:11;;;;;;;26.05;14.07;;;;;;;3.68;78.15;99612.55;1753494;80;21879;-72
2021/11/26 06:47:41;;;;;;;28.75;15.95;;;;;;;3.70;78.13;99615.20;1754051;81;21029;-72
2021/11/26 06:50:10;;;;;;;33.15;15.40;;;;;;;3.73;78.19;99616.59;1758393;81;21030;-72
2021/11/26 06:52:37;;;;;;;30.17;15.65;;;;;;;3.80;78.27;99617.27;1761096;80;21064;-72
2021/11/26 06:55:07;;;;;;;32.73;16.12;;;;;;;3.89;78.30;99619.31;1771922;80;21649;-71
2021/11/26 06:57:39;;;;;;;32.58;16.23;;;;;;;3.98;78.29;99623.52;1776701;80;21770;-72
2021/11/26 07:00:12;;;;;;;25.88;15.55;;;;;;;4.06;78.30;99625.95;1768721;80;21288;-72
2021/11/26 07:02:38;;;;;;;26.07;14.75;;;;;;;4.17;78.20;99634.13;1750391;80;21004;-72
2021/11/26 07:05:11;;;;;;;26.70;13.72;;;;;;;4.26;78.15;99628.30;1726014;81;21011;-72
2021/11/26 07:07:43;;;;;;;33.70;17.02;;;;;;;4.32;77.96;99627.23;1733610;82;21011;-72
2021/11/26 07:10:10;;;;;;;30.10;14.78;;;;;;;4.37;77.86;99630.84;1725594;82;21801;-72
2021/11/26 07:12:37;;;;;;;28.38;15.03;;;;;;;4.42;77.83;99624.06;1718825;81;21106;-72
2021/11/26 07:15:05;;;;;;;26.12;14.15;;;;;;;4.44;77.58;99621.08;1759217;80;21643;-71
2021/11/26 07:17:34;;;;;;;28.62;14.35;;;;;;;4.48;77.56;99620.76;1759428;81;21156;-72
2021/11/26 07:20:01;;;;;;;30.52;13.95;;;;;;;4.53;77.52;99620.92;1759188;81;21632;-72
2021/11/26 07:22:27;;;;;;;23.35;13.30;;;;;;;4.56;77.36;99621.91;1759279;80;21344;-72
2021/11/26 07:24:56;;;;;;;26.23;13.80;;;;;;;4.62;77.34;99627.30;1758579;81;21074;-72
2021/11/26 07:27:22;;;;;;;25.00;13.80;;;;;;;4.70;77.24;99624.05;1758862;81;21069;-72
2021/11/26 07:29:51;;;;;;;20.32;12.63;;;;;;;4.75;77.11;99623.73;1758742;81;21332;-72
2021/11/26 07:32:17;;;;;;;27.67;13.75;;;;;;;4.79;77.00;99625.20;1759384;80;21651;-72
2021/11/26 07:34:44;;;;;;;26.35;13.50;;;;;;;4.81;76.89;99626.13;1759538;80;21778;-72
2021/11/26 07:37:12;;;;;;;29.80;13.13;;;;;;;4.88;76.93;99620.69;1759244;81;21575;-72
2021/11/26 07:39:39;;;;;;;28.55;13.50;;;;;;;4.94;76.83;99618.25;1759793;81;21122;-72
2021/11/26 07:42:07;;;;;;;28.38;12.93;;;;;;;5.00;76.77;99614.94;1759495;81;21039;-71
2021/11/26 07:44:35;;;;;;;25.65;13.83;;;;;;;5.06;76.68;99613.37;1759609;81;21117;-71
2021/11/26 07:47:07;;;;;;;32.78;13.80;;;;;;;5.12;76.58;99614.41;1759659;81;21758;-72
2021/11/26 07:49:33;;;;;;;23.50;12.15;;;;;;;5.18;76.54;99610.26;1758904;80;21074;-72
2021/11/26 07:52:01;;;;;;;26.60;13.40;;;;;;;5.26;76.47;99607.42;1759102;80;21727;-71
2021/11/26 07:54:31;;;;;;;31.95;13.40;;;;;;;5.36;76.41;99608.99;1759358;80;21590;-72
2021/11/26 07:56:58;;;;;;;31.07;14.03;;;;;;;5.43;76.26;99605.71;1759490;81;21552;-72
2021/11/26 07:59:26;;;;;;;24.57;12.45;;;;;;;5.52;76.26;99616.41;1759434;81;21718;-72
2021/11/26 08:01:53;;;;;;;28.80;13.70;;;;;;;5.60;76.10;99616.17;1759646;80;21062;-72
2021/11/26 08:04:20;;;;;;;24.95;13.58;;;;;;;5.68;75.97;99624.64;1759493;80;21589;-72
2021/11/26 08:06:47;;;;;;;31.75;13.05;;;;;;;5.74;75.85;99617.83;1759672;80;21077;-72
2021/11/26 08:09:14;;;;;;;23.15;12.28;;;;;;;5.77;75.69;99617.05;1759560;80;21121;-72
2021/11/26 08:11:41;;;;;;;33.67;13.50;;;;;;;5.84;75.73;99613.33;1759602;81;21763;-71
2021/11/26 08:14:08;;;;;;;25.15;14.00;;;;;;;5.94;75.64;99617.48;1725416;81;21065;-72
2021/11/26 08:16:35;;;;;;;27.48;12.75;;;;;;;6.01;75.51;99616.39;1759526;81;21086;-72
2021/11/26 08:19:02;;;;;;;25.82;12.47;;;;;;;6.10;75.42;99610.93;1759357;80;21056;-72
2021/11/26 08:21:28;;;;;;;25.92;13.68;;;;;;;6.17;75.31;99614.16;1759509;80;21066;-72
2021/11/26 08:23:55;;;;;;;24.35;13.40;;;;;;;6.24;75.10;99618.69;1759503;80;21726;-72
2021/11/26 08:26:22;;;;;;;22.52;12.25;;;;;;;6.26;74.93;99612.20;1759537;81;21380;-72
2021/11/26 08:28:48;;;;;;;25.55;13.18;;;;;;;6.28;74.81;99615.30;1759599;81;21042;-72
2021/11/26 08:31:15;;;;;;;22.95;13.18;;;;;;;6.25;74.54;99613.94;1759488;80;21133;-72
2021/11/26 08:33:42;;;;;;;22.65;12.43;;;;;;;6.19;74.36;99612.46;1759450;80;21138;-72
2021/11/26 08:36:08;;;;;;;25.85;12.68;;;;;;;6.14;74.32;99618.02;1759330;81;21800;-72
2021/11/26 08:38:35;;;;;;;27.82;14.53;;;;;;;6.08;74.24;99613.53;1759355;81;21301;-72
2021/11/26 08:41:02;;;;;;;28.52;13.35;;;;;;;6.06;74.32;99616.50;1759482;81;21066;-72
2021/11/26 08:43:28;;;;;;;29.75;13.20;;;;;;;5.97;74.31;99602.80;1759643;81;21086;-72
2021/11/26 08:45:55;;;;;;;23.70;12.35;;;;;;;6.07;74.20;99621.33;1759510;81;21049;-72
2021/11/26 08:48:21;;;;;;;28.30;12.95;;;;;;;6.03;74.19;99624.28;1758846;80;22550;-72
2021/11/26 08:50:49;;;;;;;23.75;13.05;;;;;;;6.00;74.21;99627.67;1753562;81;21031;-72
2021/11/26 08:53:18;;;;;;;32.05;13.95;;;;;;;5.95;74.19;99620.53;1753470;81;21105;-72
2021/11/26 08:55:52;;;;;;;35.68;14.30;;;;;;;5.89;74.12;99622.57;1753864;81;21171;-72
2021/11/26 08:58:14;;;;;;;37.25;16.95;;;;;;;5.82;74.11;99629.81;1752569;81;21093;-72
2021/11/26 09:00:41;;;;;;;29.35;17.02;;;;;;;5.77;74.17;99632.72;1753674;80;21742;-72
2021/11/26 09:03:07;;;;;;;36.95;17.48;;;;;;;5.72;74.17;99626.05;1753615;81;21114;-72
2021/11/26 09:05:35;;;;;;;21.55;13.05;;;;;;;5.65;74.14;99625.45;1753889;80;21617;-72
2021/11/26 09:08:02;;;;;;;26.70;11.48;;;;;;;5.59;74.16;99614.42;1753932;80;21078;-72
2021/11/26 09:10:34;;;;;;;20.60;12.68;;;;;;;5.54;74.17;99617.33;1754079;80;21545;-72
2021/11/26 09:13:01;;;;;;;17.73;10.78;;;;;;;5.55;74.32;99618.20;1754106;80;21746;-72
2021/11/26 09:15:28;;;;;;;22.40;11.95;;;;;;;5.55;74.32;99619.50;1753921;80;21078;-72
2021/11/26 09:17:54;;;;;;;25.27;10.93;;;;;;;5.56;74.30;99619.55;1753956;81;21054;-72
2021/11/26 09:20:21;;;;;;;20.77;10.78;;;;;;;5.58;74.21;99611.34;1753937;81;21329;-72
2021/11/26 09:22:48;;;;;;;22.05;10.50;;;;;;;5.61;74.23;99611.43;1753946;80;21054;-72
2021/11/26 09:25:14;;;;;;;20.88;9.83;;;;;;;5.62;74.05;99607.95;1753900;81;21762;-72
2021/11/26 09:27:41;;;;;;;21.20;10.85;;;;;;;5.60;73.86;99614.87;1753983;81;21101;-72
2021/11/26 09:30:12;;;;;;;20.92;9.28;;;;;;;5.58;73.90;99613.95;1753854;81;21106;-72
2021/11/26 09:32:39;;;;;;;23.22;9.20;;;;;;;5.57;73.82;99615.20;1753948;80;21043;-72
2021/11/26 09:35:09;;;;;;;27.75;12.93;;;;;;;5.56;73.79;99622.16;1734794;81;21073;-72
2021/11/26 09:37:36;;;;;;;17.02;10.45;;;;;;;5.55;73.81;99627.33;1723915;83;21781;-72
2021/11/26 09:40:06;;;;;;;22.40;14.03;;;;;;;5.53;73.73;99624.67;1722960;83;21065;-72
2021/11/26 09:42:33;;;;;;;19.02;11.40;;;;;;;5.53;73.67;99630.33;1723703;81;21155;-72
2021/11/26 09:45:01;;;;;;;19.62;10.08;;;;;;;5.53;73.58;99627.29;1723640;83;21584;-72
2021/11/26 09:47:28;;;;;;;26.35;15.40;;;;;;;5.54;73.63;99632.98;1723620;83;21057;-72
2021/11/26 09:49:55;;;;;;;28.27;12.68;;;;;;;5.57;73.64;99627.83;1726710;82;21783;-72
2021/11/26 09:52:22;;;;;;;19.50;10.40;;;;;;;5.59;73.52;99628.78;1729327;82;21535;-72
2021/11/26 09:54:49;;;;;;;26.05;10.90;;;;;;;5.64;73.52;99629.77;1729067;82;21164;-72
2021/11/26 09:57:15;;;;;;;50.12;23.85;;;;;;;5.71;73.50;99629.95;1728822;82;21053;-72
2021/11/26 09:59:45;;;;;;;41.45;22.75;;;;;;;5.74;73.35;99630.02;1729001;82;21612;-72
2021/11/26 10:02:16;;;;;;;29.80;16.67;;;;;;;5.72;73.32;99623.87;1728867;82;21834;-72
2021/11/26 10:04:43;;;;;;;21.73;12.37;;;;;;;5.73;73.22;99633.48;1729116;82;21072;-72
2021/11/26 10:07:10;;;;;;;21.05;10.25;;;;;;;5.71;73.08;99623.42;1728956;82;21081;-72
2021/11/26 10:09:38;;;;;;;19.30;11.08;;;;;;;5.71;72.99;99624.73;1729217;82;21069;-72
2021/11/26 10:12:10;;;;;;;20.97;9.25;;;;;;;5.73;73.08;99621.30;1729345;82;21065;-72
2021/11/26 10:14:45;;;;;;;16.30;9.40;;;;;;;5.81;73.05;99632.82;1729331;82;23675;-72
2021/11/26 10:17:22;;;;;;;;;;;;;;;5.85;72.86;99632.48;1731606;81;21523;-72
2021/11/26 10:20:00;;;;;;;18.82;9.38;;;;;;;5.88;72.63;99618.20;1729055;82;20206;-72
2021/11/26 10:22:32;;;;;;;17.73;7.25;;;;;;;5.89;72.44;99612.55;1698360;84;21550;-72
2021/11/26 10:25:16;;;;;;;19.35;8.10;;;;;;;5.89;72.42;99605.59;1729208;81;21164;-72
2021/11/26 10:27:57;;;;;;;20.77;9.30;;;;;;;5.92;72.35;99608.30;1698313;84;22450;-72
2021/11/26 10:30:35;;;;;;;15.43;9.03;;;;;;;5.94;72.23;99604.42;1709457;83;21078;-72
2021/11/26 10:33:23;;;;;;;18.70;10.08;;;;;;;5.94;72.11;99603.99;1718481;83;21070;-72
2021/11/26 10:35:53;;;;;;;15.55;8.13;;;;;;;5.92;71.80;99597.84;1718151;83;21342;-72
2021/11/26 10:38:28;;;;;;;21.42;10.08;;;;;;;5.86;71.61;99587.26;1718559;83;21058;-72
2021/11/26 10:40:58;;;;;;;18.07;8.80;;;;;;;5.82;71.59;99589.34;1729420;82;22596;-72
2021/11/26 11:00:01;;;;;;;30.23;13.83;;;;;;;5.83;71.49;99588.05;1691623;83;21160;-72
2021/11/26 11:02:34;;;;;;;16.35;10.75;;;;;;;5.83;71.59;99575.41;1718523;82;21163;-72
2021/11/26 11:05:01;;;;;;;26.48;14.03;;;;;;;5.83;71.47;99576.72;1718783;83;21684;-72
2021/11/26 11:07:42;;;;;;;32.95;19.50;;;;;;;5.83;71.37;99567.58;1718645;83;21737;-72
2021/11/26 11:10:09;;;;;;;32.40;16.02;;;;;;;5.81;71.28;99578.41;1717803;83;21770;-72
2021/11/26 11:12:38;;;;;;;28.05;12.75;;;;;;;5.77;71.08;99567.00;1718292;83;21209;-72
2021/11/26 11:15:08;;;;;;;18.55;10.95;;;;;;;5.75;71.04;99569.13;1718396;82;21050;-72
2021/11/26 11:17:36;;;;;;;17.65;8.73;;;;;;;5.71;70.95;99571.20;1718510;83;21066;-72
2021/11/26 11:20:09;;;;;;;23.02;10.18;;;;;;;5.68;71.00;99565.90;1718366;83;21790;-72
2021/11/26 11:22:36;;;;;;;22.70;13.05;;;;;;;5.66;70.97;99561.94;1717379;83;21093;-72
2021/11/26 11:25:04;;;;;;;17.32;9.45;;;;;;;5.67;71.09;99558.50;1723560;82;21054;-72
2021/11/26 11:27:31;;;;;;;21.45;10.75;;;;;;;5.69;71.24;99563.73;1707805;83;21098;-73
2021/11/26 11:30:01;;;;;;;25.12;14.15;;;;;;;5.72;71.30;99569.04;1723625;82;21080;-73
2021/11/26 11:32:27;;;;;;;22.52;13.95;;;;;;;5.75;71.25;99560.87;1723539;83;22694;-73
2021/11/26 11:34:55;;;;;;;31.73;14.05;;;;;;;5.76;71.23;99552.20;1723282;83;21057;-72
2021/11/26 11:37:28;;;;;;;29.72;16.85;;;;;;;5.79;71.20;99549.64;1723492;83;21065;-72
2021/11/26 11:40:00;;;;;;;;;;;;;;;5.81;71.16;99549.69;1726048;83;21049;-73
2021/11/26 11:42:32;;;;;;;24.82;11.00;;;;;;;5.81;70.97;99546.64;1707703;83;20220;-72
2021/11/26 11:45:04;;;;;;;20.77;12.88;;;;;;;5.81;71.05;99550.56;1723840;83;22560;-73
2021/11/26 11:47:32;;;;;;;32.30;21.07;;;;;;;5.83;71.02;99550.17;1720439;83;21646;-73